Dayton, OH (45435)

5:21 PM EST on March 06, 2015 (GMT -0500)
Gardenview | Change Station
CLOSE
Current Station
Personal Weather Station
Location: Dayton, OH
Elevation: 958 ft
Nearby Weather Stations

Elev 958 ft 39.76 °N, 84.08 °W | Updated 14 minutes ago

Clear
Clear
27.5 °F
Feels Like 19 °F
N
8.9
Wind Variable Wind from SSW

Today
High -- | Low -- °F
--% Chance of Precip.
Yesterday
High -- | Low -- °F
Precip. -- in
7:02 AM 6:33 PM
Full, 99% visible
Pressure 30.43 in
Visibility 10.0 miles
Clouds Few 25000 ft
Windchill 19 °F
Dew Point 9 °F
Humidity 45%
Rainfall in
Snow Depth Not available.
UV 1 out of 12
Pollen 2.20 out of 12
Air Quality Not available.
Flu Activity Not available.
METAR KFFO 062158Z 20014KT 10SM FEW250 M02/M12 A3037 RMK AO2A SLP302 T10251119

More Conditions Fewer Conditions

Pressure 30.43 in
Visibility 10.0 miles
Clouds Few 25000 ft
Windchill 19 °F
Dew Point 9 °F
Humidity 45%
Rainfall in
Snow Depth Not available.
UV 1 out of 12
Pollen 2.20 out of 12
Air Quality Not available.
Flu Activity Not available.
METAR KFFO 062158Z 20014KT 10SM FEW250 M02/M12 A3037 RMK AO2A SLP302 T10251119

More Conditions Fewer Conditions

10-Day Weather Forecast

Almanac

Astronomy

Mar. 06, 2015 Rise Set
Actual Time
Civil Twilight
Nautical Twilight
Astronomical Twilight
Moon
Length of Visible Light
Length of Day
Tomorrow will be .
, % of the Moon is Illuminated

Today's Extremes

State Highs State Lows

Community

WunderPhotos

Upload Photos

1,803,420 photos uploaded!

WunderBlogs® & News

Nearby

Air Quality

  Air Quality AQ Index Pollutant
Not available.

Snow Depth

Station Depth Elevation

Earthquake Activity

City Distance Mag. Time & Date
Minimum magnitude displayed is 2.5.

Coastal Water Temperatures

Place Temperature

Nearby Weather Stations